TimeCDT,TemperatureF,Dew PointF,Humidity,Sea Level PressureIn,VisibilityMPH,Wind Direction,Wind SpeedMPH,Gust SpeedMPH,PrecipitationIn,Events,Conditions,WindDirDegrees,DateUTC
12:14 AM,60.8,32.0,34,29.64,10.0,South,3.5,-,N/A,,Clear,170,2013-05-14 05:14:00
12:35 AM,59.0,33.8,39,29.64,10.0,South,3.5,-,N/A,,Clear,180,2013-05-14 05:35:00
12:55 AM,60.8,30.2,31,29.63,10.0,South,4.6,-,N/A,,Clear,180,2013-05-14 05:55:00
1:14 AM,60.8,30.2,31,29.63,10.0,South,5.8,-,N/A,,Clear,180,2013-05-14 06:14:00
1:35 AM,60.8,32.0,34,29.63,10.0,South,3.5,-,N/A,,Clear,190,2013-05-14 06:35:00
1:55 AM,59.0,33.8,39,29.62,10.0,South,4.6,-,N/A,,Clear,190,2013-05-14 06:55:00
2:15 AM,60.8,30.2,31,29.62,10.0,South,6.9,-,N/A,,Clear,170,2013-05-14 07:15:00
2:35 AM,60.8,32.0,34,29.61,10.0,SSE,8.1,-,N/A,,Clear,160,2013-05-14 07:35:00
2:54 AM,57.2,35.6,44,29.61,10.0,SSE,6.9,-,N/A,,Clear,160,2013-05-14 07:54:00
3:15 AM,57.2,35.6,44,29.61,10.0,SSE,8.1,-,N/A,,Clear,160,2013-05-14 08:15:00
3:35 AM,55.4,37.4,51,29.60,10.0,SSE,9.2,-,N/A,,Clear,150,2013-05-14 08:35:00
3:54 AM,55.4,39.2,54,29.59,10.0,SSE,10.4,-,N/A,,Clear,150,2013-05-14 08:54:00
4:15 AM,57.2,39.2,51,29.59,10.0,SSE,8.1,-,N/A,,Clear,150,2013-05-14 09:15:00
4:35 AM,57.2,39.2,51,29.58,10.0,South,9.2,-,N/A,,Clear,170,2013-05-14 09:35:00
4:54 AM,57.2,39.2,51,29.57,10.0,SSE,8.1,-,N/A,,Clear,150,2013-05-14 09:54:00
5:15 AM,60.8,39.2,45,29.56,10.0,South,11.5,-,N/A,,Clear,170,2013-05-14 10:15:00
5:35 AM,59.0,39.2,48,29.56,10.0,South,9.2,-,N/A,,Clear,170,2013-05-14 10:35:00
5:54 AM,62.6,39.2,42,29.52,10.0,SSE,12.7,-,N/A,,Clear,150,2013-05-14 10:54:00
6:15 AM,64.4,35.6,34,29.50,10.0,South,17.3,-,N/A,,Scattered Clouds,170,2013-05-14 11:15:00
6:35 AM,68.0,35.6,30,29.47,10.0,SSE,21.9,-,N/A,,Clear,160,2013-05-14 11:35:00
6:55 AM,69.8,33.8,27,29.63,5.0,WNW,23.0,64.4,N/A,,Haze,300,2013-05-14 11:55:00
7:15 AM,62.6,53.6,72,29.69,10.0,NNW,26.5,32.2,0.02,Rain,Light Rain,340,2013-05-14 12:15:00
7:35 AM,60.8,55.4,82,29.65,10.0,North,21.9,42.6,0.02,Rain,Light Rain,10,2013-05-14 12:35:00
7:55 AM,60.8,53.6,77,29.60,10.0,ENE,17.3,25.3,0.02,Rain,Light Rain,60,2013-05-14 12:55:00
8:15 AM,60.8,53.6,77,29.55,10.0,East,17.3,23.0,N/A,,Clear,90,2013-05-14 13:15:00
8:34 AM,62.6,53.6,72,29.55,10.0,East,13.8,19.6,N/A,,Clear,100,2013-05-14 13:34:00
8:55 AM,66.2,53.6,64,29.54,10.0,East,13.8,-,N/A,,Clear,100,2013-05-14 13:55:00
9:15 AM,68.0,50.0,52,29.54,10.0,ESE,18.4,21.9,N/A,,Clear,110,2013-05-14 14:15:00
9:34 AM,69.8,46.4,43,29.52,10.0,ESE,18.4,23.0,N/A,,Clear,120,2013-05-14 14:34:00
9:55 AM,71.6,46.4,41,29.52,10.0,SE,19.6,26.5,N/A,,Clear,130,2013-05-14 14:55:00
10:15 AM,73.4,42.8,33,29.51,10.0,SE,16.1,25.3,N/A,,Clear,130,2013-05-14 15:15:00
10:34 AM,77.0,39.2,26,29.51,10.0,SSE,17.3,24.2,N/A,,Clear,160,2013-05-14 15:34:00
10:55 AM,78.8,35.6,21,29.51,10.0,SSE,15.0,-,N/A,,Clear,160,2013-05-14 15:55:00
11:15 AM,80.6,35.6,20,29.51,10.0,SSE,17.3,20.7,N/A,,Clear,160,2013-05-14 16:15:00
11:34 AM,82.4,35.6,19,29.52,10.0,South,9.2,-,N/A,,Clear,180,2013-05-14 16:34:00
11:55 AM,84.2,30.2,14,29.52,10.0,SW,15.0,20.7,N/A,,Clear,220,2013-05-14 16:55:00
12:15 PM,84.2,28.4,13,29.52,10.0,West,16.1,21.9,N/A,,Clear,270,2013-05-14 17:15:00
12:35 PM,86.0,30.2,13,29.52,10.0,West,17.3,28.8,N/A,,Clear,280,2013-05-14 17:35:00
12:55 PM,86.0,33.8,15,29.53,10.0,WNW,29.9,34.5,N/A,,Clear,290,2013-05-14 17:55:00
1:14 PM,86.0,39.2,19,29.53,10.0,WNW,27.6,33.4,N/A,,Clear,290,2013-05-14 18:14:00
1:35 PM,84.2,42.8,23,29.53,10.0,West,27.6,38.0,N/A,,Clear,280,2013-05-14 18:35:00
1:55 PM,84.2,41.0,22,29.53,10.0,West,27.6,36.8,N/A,,Clear,280,2013-05-14 18:55:00
2:14 PM,84.2,44.6,25,29.54,10.0,West,29.9,34.5,N/A,,Clear,280,2013-05-14 19:14:00
2:35 PM,84.2,12.2,7,29.54,10.0,WNW,33.4,39.1,N/A,,Clear,290,2013-05-14 19:35:00
2:55 PM,84.2,-54.4,4,29.55,10.0,WNW,29.9,36.8,N/A,,Clear,290,2013-05-14 19:55:00
3:14 PM,84.2,-9.4,4,29.56,10.0,WNW,33.4,40.3,N/A,,Clear,300,2013-05-14 20:14:00
3:35 PM,82.4,-7.6,4,29.57,10.0,WNW,28.8,42.6,N/A,,Clear,300,2013-05-14 20:35:00
3:54 PM,82.4,-7.6,4,29.58,10.0,WNW,31.1,40.3,N/A,,Clear,300,2013-05-14 20:54:00
4:15 PM,82.4,3.2,5,29.58,10.0,WNW,33.4,43.7,N/A,,Clear,290,2013-05-14 21:15:00
4:35 PM,80.6,8.6,6,29.58,10.0,WNW,29.9,43.7,N/A,,Clear,290,2013-05-14 21:35:00
4:54 PM,80.6,17.6,10,29.58,10.0,WNW,33.4,43.7,N/A,,Clear,290,2013-05-14 21:54:00
5:15 PM,80.6,24.8,13,29.60,10.0,WNW,31.1,43.7,N/A,,Clear,300,2013-05-14 22:15:00
5:35 PM,78.8,26.6,15,29.61,10.0,WNW,35.7,40.3,N/A,,Clear,300,2013-05-14 22:35:00
5:54 PM,78.8,30.2,17,29.62,10.0,WNW,36.8,42.6,N/A,,Scattered Clouds,290,2013-05-14 22:54:00
6:15 PM,77.0,32.0,19,29.63,10.0,WNW,36.8,40.3,N/A,,Scattered Clouds,300,2013-05-14 23:15:00
6:35 PM,75.2,32.0,21,29.64,10.0,NW,27.6,38.0,N/A,,Clear,320,2013-05-14 23:35:00
6:54 PM,73.4,33.8,23,29.64,10.0,NNW,29.9,33.4,N/A,,Clear,330,2013-05-14 23:54:00
7:15 PM,71.6,35.6,27,29.66,10.0,NW,28.8,36.8,N/A,,Clear,310,2013-05-15 00:15:00
7:34 PM,71.6,37.4,29,29.67,10.0,NW,25.3,32.2,N/A,,Clear,310,2013-05-15 00:34:00
7:55 PM,69.8,39.2,33,29.68,10.0,NW,24.2,29.9,N/A,,Clear,320,2013-05-15 00:55:00
8:15 PM,69.8,37.4,31,29.69,10.0,NW,28.8,38.0,N/A,,Clear,320,2013-05-15 01:15:00
8:35 PM,69.8,39.2,33,29.70,10.0,NNW,27.6,38.0,N/A,,Clear,340,2013-05-15 01:35:00
8:55 PM,66.2,37.4,35,29.72,10.0,NNW,20.7,32.2,N/A,,Clear,340,2013-05-15 01:55:00
9:14 PM,66.2,39.2,37,29.73,10.0,NNW,16.1,-,N/A,,Clear,340,2013-05-15 02:14:00
9:35 PM,64.4,39.2,40,29.74,10.0,North,16.1,-,N/A,,Clear,350,2013-05-15 02:35:00
9:55 PM,62.6,39.2,42,29.75,10.0,North,13.8,-,N/A,,Clear,350,2013-05-15 02:55:00
10:14 PM,62.6,39.2,42,29.77,10.0,NNW,9.2,-,N/A,,Clear,340,2013-05-15 03:14:00
10:35 PM,60.8,41.0,48,29.78,10.0,NNW,8.1,-,N/A,,Clear,340,2013-05-15 03:35:00
10:55 PM,57.2,41.0,55,29.78,10.0,NNW,5.8,-,N/A,,Clear,340,2013-05-15 03:55:00
11:14 PM,57.2,41.0,55,29.79,10.0,NNW,6.9,-,N/A,,Clear,330,2013-05-15 04:14:00
11:35 PM,55.4,41.0,58,29.79,10.0,NW,5.8,-,N/A,,Clear,310,2013-05-15 04:35:00
11:55 PM,55.4,41.0,58,29.80,10.0,WNW,3.5,-,N/A,,Clear,300,2013-05-15 04:55:00